Time,TemperatureF,DewpointF,PressureIn,WindDirection,WindDirectionDegrees,WindSpeedMPH,WindSpeedGustMPH,Humidity,HourlyPrecipIn,Conditions,Clouds,dailyrainin,SoftwareType,DateUTC
2013-10-09 00:01:00,39.9,36.0,30.33,NNE,22,0.0,0.0,86,0.00,,,0.00,WUHU21623XXSP,2013-10-09 04:01:00,
2013-10-09 00:06:00,39.9,36.0,30.34,NNE,22,0.0,0.0,86,0.00,,,0.00,WUHU21623XXSP,2013-10-09 04:06:00,
2013-10-09 00:11:00,39.9,36.0,30.34,NNE,22,0.0,0.0,86,0.00,,,0.00,WUHU21623XXSP,2013-10-09 04:11:00,
2013-10-09 00:16:00,39.6,35.7,30.34,NNE,22,0.0,0.0,86,0.00,,,0.00,WUHU21623XXSP,2013-10-09 04:16:00,
2013-10-09 00:21:00,39.4,35.5,30.33,NNE,22,0.0,0.0,86,0.00,,,0.00,WUHU21623XXSP,2013-10-09 04:21:00,
2013-10-09 00:26:00,38.8,35.0,30.34,NNE,22,0.0,0.0,86,0.00,,,0.00,WUHU21623XXSP,2013-10-09 04:26:00,
2013-10-09 00:31:00,38.3,34.4,30.33,NNE,22,0.0,0.0,86,0.00,,,0.00,WUHU21623XXSP,2013-10-09 04:31:00,
2013-10-09 00:36:00,37.9,34.1,30.33,NNE,22,0.0,0.0,86,0.00,,,0.00,WUHU21623XXSP,2013-10-09 04:36:00,
2013-10-09 00:41:00,37.4,33.5,30.34,NNE,22,0.0,0.0,86,0.00,,,0.00,WUHU21623XXSP,2013-10-09 04:41:00,
2013-10-09 00:46:00,37.2,33.4,30.34,NNE,22,0.0,0.0,86,0.00,,,0.00,WUHU21623XXSP,2013-10-09 04:46:00,
2013-10-09 00:51:00,37.0,33.2,30.33,NNE,22,0.0,0.0,86,0.00,,,0.00,WUHU21623XXSP,2013-10-09 04:51:00,
2013-10-09 00:56:00,36.5,32.6,30.33,NNE,22,0.0,0.0,86,0.00,,,0.00,WUHU21623XXSP,2013-10-09 04:56:00,
2013-10-09 01:01:00,36.9,33.3,30.33,NNE,22,0.0,0.0,87,0.00,,,0.00,WUHU21623XXSP,2013-10-09 05:01:00,
2013-10-09 01:06:00,37.2,33.4,30.33,NNE,22,0.0,0.0,86,0.00,,,0.00,WUHU21623XXSP,2013-10-09 05:06:00,
2013-10-09 01:11:00,37.0,33.2,30.33,NNE,22,0.0,0.0,86,0.00,,,0.00,WUHU21623XXSP,2013-10-09 05:11:00,
2013-10-09 01:16:00,37.0,33.2,30.33,NNE,22,0.0,0.0,86,0.00,,,0.00,WUHU21623XXSP,2013-10-09 05:16:00,
2013-10-09 01:21:00,36.9,33.0,30.33,NNE,22,0.0,0.0,86,0.00,,,0.00,WUHU21623XXSP,2013-10-09 05:21:00,
2013-10-09 01:26:00,36.9,33.3,30.33,NNE,22,0.0,0.0,87,0.00,,,0.00,WUHU21623XXSP,2013-10-09 05:26:00,
2013-10-09 01:31:00,36.5,32.9,30.33,NNE,22,0.0,0.0,87,0.00,,,0.00,WUHU21623XXSP,2013-10-09 05:31:00,
2013-10-09 01:36:00,36.3,32.8,30.34,NNE,22,0.0,0.0,87,0.00,,,0.00,WUHU21623XXSP,2013-10-09 05:36:00,
2013-10-09 01:41:00,36.3,32.8,30.34,NNE,22,0.0,0.0,87,0.00,,,0.00,WUHU21623XXSP,2013-10-09 05:41:00,
2013-10-09 01:46:00,36.1,32.6,30.33,NNE,22,0.0,0.0,87,0.00,,,0.00,WUHU21623XXSP,2013-10-09 05:46:00,
2013-10-09 01:51:00,36.0,32.4,30.33,NNE,22,0.0,0.0,87,0.00,,,0.00,WUHU21623XXSP,2013-10-09 05:51:00,
2013-10-09 01:56:00,35.8,32.2,30.34,NNE,22,0.0,0.0,87,0.00,,,0.00,WUHU21623XXSP,2013-10-09 05:56:00,
2013-10-09 02:01:00,35.8,32.2,30.33,NNE,22,0.0,0.0,87,0.00,,,0.00,WUHU21623XXSP,2013-10-09 06:01:00,
2013-10-09 02:06:00,35.8,32.2,30.34,NNE,22,0.0,0.0,87,0.00,,,0.00,WUHU21623XXSP,2013-10-09 06:06:00,
2013-10-09 02:11:00,36.1,32.6,30.34,NNE,22,0.0,0.0,87,0.00,,,0.00,WUHU21623XXSP,2013-10-09 06:11:00,
2013-10-09 02:16:00,36.0,32.4,30.33,NNE,22,0.0,0.0,87,0.00,,,0.00,WUHU21623XXSP,2013-10-09 06:16:00,
2013-10-09 02:21:00,35.4,31.9,30.33,NNE,22,0.0,0.0,87,0.00,,,0.00,WUHU21623XXSP,2013-10-09 06:21:00,
2013-10-09 02:26:00,35.4,31.9,30.34,NNE,22,0.0,0.0,87,0.00,,,0.00,WUHU21623XXSP,2013-10-09 06:26:00,
2013-10-09 02:31:00,35.4,32.1,30.33,NNE,22,0.0,0.0,88,0.00,,,0.00,WUHU21623XXSP,2013-10-09 06:31:00,
2013-10-09 02:36:00,35.2,31.7,30.33,NNE,22,0.0,0.0,87,0.00,,,0.00,WUHU21623XXSP,2013-10-09 06:36:00,
2013-10-09 02:41:00,34.5,31.0,30.33,NNE,22,0.0,0.0,87,0.00,,,0.00,WUHU21623XXSP,2013-10-09 06:41:00,
2013-10-09 02:46:00,34.3,30.8,30.33,NNE,22,0.0,0.0,87,0.00,,,0.00,WUHU21623XXSP,2013-10-09 06:46:00,
2013-10-09 02:51:00,34.3,30.8,30.33,NNE,22,0.0,0.0,87,0.00,,,0.00,WUHU21623XXSP,2013-10-09 06:51:00,
2013-10-09 02:56:00,34.3,30.8,30.33,NNE,22,0.0,0.0,87,0.00,,,0.00,WUHU21623XXSP,2013-10-09 06:56:00,
2013-10-09 03:01:00,34.9,31.6,30.33,NNE,22,0.0,0.0,88,0.00,,,0.00,WUHU21623XXSP,2013-10-09 07:01:00,
2013-10-09 03:06:00,34.5,31.2,30.33,NNE,22,0.0,0.0,88,0.00,,,0.00,WUHU21623XXSP,2013-10-09 07:06:00,
2013-10-09 03:11:00,34.7,31.4,30.33,NNE,22,0.0,0.0,88,0.00,,,0.00,WUHU21623XXSP,2013-10-09 07:11:00,
2013-10-09 03:16:00,34.9,31.6,30.33,NNE,22,0.0,0.0,88,0.00,,,0.00,WUHU21623XXSP,2013-10-09 07:16:00,
2013-10-09 03:21:00,34.7,31.4,30.33,NNE,22,0.0,0.0,88,0.00,,,0.00,WUHU21623XXSP,2013-10-09 07:21:00,
2013-10-09 03:26:00,34.9,31.6,30.33,NNE,22,0.0,0.0,88,0.00,,,0.00,WUHU21623XXSP,2013-10-09 07:26:00,
2013-10-09 03:31:00,34.5,31.2,30.33,NNE,22,0.0,0.0,88,0.00,,,0.00,WUHU21623XXSP,2013-10-09 07:31:00,
2013-10-09 03:36:00,34.3,30.8,30.33,NNE,22,0.0,0.0,87,0.00,,,0.00,WUHU21623XXSP,2013-10-09 07:36:00,
2013-10-09 03:41:00,34.3,30.8,30.34,NNE,22,0.0,0.0,87,0.00,,,0.00,WUHU21623XXSP,2013-10-09 07:41:00,
2013-10-09 03:46:00,34.2,30.6,30.33,NNE,22,0.0,0.0,87,0.00,,,0.00,WUHU21623XXSP,2013-10-09 07:46:00,
2013-10-09 03:51:00,34.2,30.6,30.34,NNE,22,0.0,0.0,87,0.00,,,0.00,WUHU21623XXSP,2013-10-09 07:51:00,
2013-10-09 03:56:00,33.6,30.1,30.34,NNE,22,0.0,0.0,87,0.00,,,0.00,WUHU21623XXSP,2013-10-09 07:56:00,
2013-10-09 04:01:00,33.6,30.4,30.34,NNE,22,0.0,0.0,88,0.00,,,0.00,WUHU21623XXSP,2013-10-09 08:01:00,
2013-10-09 04:06:00,33.6,30.4,30.34,NNE,22,0.0,0.0,88,0.00,,,0.00,WUHU21623XXSP,2013-10-09 08:06:00,
2013-10-09 04:11:00,33.8,30.5,30.34,NNE,22,0.0,0.0,88,0.00,,,0.00,WUHU21623XXSP,2013-10-09 08:11:00,
2013-10-09 04:16:00,34.0,30.7,30.34,NNE,22,0.0,0.0,88,0.00,,,0.00,WUHU21623XXSP,2013-10-09 08:16:00,
2013-10-09 04:21:00,34.0,30.7,30.34,NNE,22,0.0,0.0,88,0.00,,,0.00,WUHU21623XXSP,2013-10-09 08:21:00,
2013-10-09 04:26:00,34.2,30.9,30.35,NNE,22,0.0,0.0,88,0.00,,,0.00,WUHU21623XXSP,2013-10-09 08:26:00,
2013-10-09 04:31:00,33.8,30.5,30.35,NNE,22,0.0,0.0,88,0.00,,,0.00,WUHU21623XXSP,2013-10-09 08:31:00,
2013-10-09 04:36:00,34.0,30.7,30.35,NNE,22,0.0,0.0,88,0.00,,,0.00,WUHU21623XXSP,2013-10-09 08:36:00,
2013-10-09 04:41:00,34.0,30.7,30.35,NNE,22,0.0,0.0,88,0.00,,,0.00,WUHU21623XXSP,2013-10-09 08:41:00,
2013-10-09 04:46:00,33.6,30.4,30.35,NNE,22,0.0,0.0,88,0.00,,,0.00,WUHU21623XXSP,2013-10-09 08:46:00,
2013-10-09 04:51:00,33.6,30.4,30.36,NNE,22,0.0,0.0,88,0.00,,,0.00,WUHU21623XXSP,2013-10-09 08:51:00,
2013-10-09 04:56:00,33.6,30.4,30.35,NNE,22,0.0,0.0,88,0.00,,,0.00,WUHU21623XXSP,2013-10-09 08:56:00,
2013-10-09 05:01:00,33.8,30.5,30.35,NNE,22,0.0,0.0,88,0.00,,,0.00,WUHU21623XXSP,2013-10-09 09:01:00,
2013-10-09 05:06:00,33.6,30.4,30.36,NNE,22,0.0,0.0,88,0.00,,,0.00,WUHU21623XXSP,2013-10-09 09:06:00,
2013-10-09 05:11:00,33.4,30.2,30.36,NNE,22,0.0,0.0,88,0.00,,,0.00,WUHU21623XXSP,2013-10-09 09:11:00,
2013-10-09 05:16:00,33.1,29.9,30.36,NNE,22,0.0,0.0,88,0.00,,,0.00,WUHU21623XXSP,2013-10-09 09:16:00,
2013-10-09 05:21:00,33.1,29.9,30.36,NNE,22,0.0,0.0,88,0.00,,,0.00,WUHU21623XXSP,2013-10-09 09:21:00,
2013-10-09 05:26:00,33.4,30.2,30.36,NNE,22,0.0,0.0,88,0.00,,,0.00,WUHU21623XXSP,2013-10-09 09:26:00,
2013-10-09 05:31:00,32.9,29.7,30.36,NNE,22,0.0,0.0,88,0.00,,,0.00,WUHU21623XXSP,2013-10-09 09:31:00,
2013-10-09 05:36:00,32.9,29.7,30.36,NNE,22,0.0,0.0,88,0.00,,,0.00,WUHU21623XXSP,2013-10-09 09:36:00,
2013-10-09 05:41:00,32.7,29.6,30.36,NNE,22,0.0,0.0,88,0.00,,,0.00,WUHU21623XXSP,2013-10-09 09:41:00,
2013-10-09 05:46:00,32.4,29.2,30.36,NNE,22,0.0,0.0,88,0.00,,,0.00,WUHU21623XXSP,2013-10-09 09:46:00,
2013-10-09 05:51:00,32.5,29.4,30.36,NNE,22,0.0,0.0,88,0.00,,,0.00,WUHU21623XXSP,2013-10-09 09:51:00,
2013-10-09 05:56:00,32.7,29.6,30.36,NNE,22,0.0,0.0,88,0.00,,,0.00,WUHU21623XXSP,2013-10-09 09:56:00,
2013-10-09 06:01:00,32.5,29.4,30.36,NNE,22,0.0,0.0,88,0.00,,,0.00,WUHU21623XXSP,2013-10-09 10:01:00,
2013-10-09 06:06:00,32.5,29.4,30.36,NNE,22,0.0,0.0,88,0.00,,,0.00,WUHU21623XXSP,2013-10-09 10:06:00,
2013-10-09 06:11:00,32.5,29.4,30.36,NNE,22,0.0,0.0,88,0.00,,,0.00,WUHU21623XXSP,2013-10-09 10:11:00,
2013-10-09 06:16:00,32.5,29.4,30.36,NNE,22,0.0,0.0,88,0.00,,,0.00,WUHU21623XXSP,2013-10-09 10:16:00,
2013-10-09 06:21:00,32.4,29.2,30.37,NNE,22,0.0,0.0,88,0.00,,,0.00,WUHU21623XXSP,2013-10-09 10:21:00,
2013-10-09 06:26:00,32.2,29.1,30.36,NNE,22,0.0,0.0,88,0.00,,,0.00,WUHU21623XXSP,2013-10-09 10:26:00,
2013-10-09 06:31:00,32.2,29.1,30.36,NNE,22,0.0,0.0,88,0.00,,,0.00,WUHU21623XXSP,2013-10-09 10:31:00,
2013-10-09 06:36:00,31.8,28.7,30.36,NNE,22,0.0,0.0,88,0.00,,,0.00,WUHU21623XXSP,2013-10-09 10:36:00,
2013-10-09 06:41:00,31.8,28.7,30.36,NNE,22,0.0,0.0,88,0.00,,,0.00,WUHU21623XXSP,2013-10-09 10:41:00,
2013-10-09 06:46:00,31.8,28.7,30.36,NNE,22,0.0,0.0,88,0.00,,,0.00,WUHU21623XXSP,2013-10-09 10:46:00,
2013-10-09 06:51:00,32.0,28.9,30.36,NNE,22,0.0,0.0,88,0.00,,,0.00,WUHU21623XXSP,2013-10-09 10:51:00,
2013-10-09 06:56:00,32.2,29.1,30.37,NNE,22,0.0,0.0,88,0.00,,,0.00,WUHU21623XXSP,2013-10-09 10:56:00,
2013-10-09 07:01:00,32.2,29.1,30.37,NNE,22,0.0,0.0,88,0.00,,,0.00,WUHU21623XXSP,2013-10-09 11:01:00,
2013-10-09 07:06:00,31.8,28.7,30.37,NNE,22,0.0,0.0,88,0.00,,,0.00,WUHU21623XXSP,2013-10-09 11:06:00,
2013-10-09 07:11:00,32.0,28.9,30.37,NNE,22,0.0,0.0,88,0.00,,,0.00,WUHU21623XXSP,2013-10-09 11:11:00,
2013-10-09 07:16:00,32.2,29.1,30.37,NNE,22,0.0,0.0,88,0.00,,,0.00,WUHU21623XXSP,2013-10-09 11:16:00,
2013-10-09 07:21:00,32.2,29.1,30.37,NNE,22,0.0,0.0,88,0.00,,,0.00,WUHU21623XXSP,2013-10-09 11:21:00,
2013-10-09 07:26:00,32.4,29.2,30.37,NNE,22,0.0,0.0,88,0.00,,,0.00,WUHU21623XXSP,2013-10-09 11:26:00,
2013-10-09 07:31:00,32.7,29.6,30.37,NNE,22,0.0,0.0,88,0.00,,,0.00,WUHU21623XXSP,2013-10-09 11:31:00,
2013-10-09 07:36:00,32.7,29.6,30.37,NNE,22,0.0,0.0,88,0.00,,,0.00,WUHU21623XXSP,2013-10-09 11:36:00,
2013-10-09 07:41:00,32.7,29.6,30.38,NNE,22,0.0,0.0,88,0.00,,,0.00,WUHU21623XXSP,2013-10-09 11:41:00,
2013-10-09 07:46:00,32.7,29.6,30.38,NNE,22,0.0,0.0,88,0.00,,,0.00,WUHU21623XXSP,2013-10-09 11:46:00,
2013-10-09 07:51:00,33.1,29.9,30.37,NNE,22,0.0,0.0,88,0.00,,,0.00,WUHU21623XXSP,2013-10-09 11:51:00,
2013-10-09 07:56:00,33.6,30.4,30.38,NNE,22,0.0,0.0,88,0.00,,,0.00,WUHU21623XXSP,2013-10-09 11:56:00,
2013-10-09 08:01:00,34.7,31.4,30.37,NNE,22,0.0,0.0,88,0.00,,,0.00,WUHU21623XXSP,2013-10-09 12:01:00,
2013-10-09 08:03:00,35.4,32.1,30.37,NNE,22,0.0,0.0,88,0.00,,,0.00,WUHU21623XXSP,2013-10-09 12:03:00,
2013-10-09 08:08:00,36.9,33.6,30.38,NNE,22,0.0,0.0,88,0.00,,,0.00,WUHU21623XXSP,2013-10-09 12:08:00,
2013-10-09 08:13:00,38.5,35.2,30.38,NNE,22,0.0,0.0,88,0.00,,,0.00,WUHU21623XXSP,2013-10-09 12:13:00,
2013-10-09 08:18:00,39.7,36.4,30.38,NNE,22,0.0,0.0,88,0.00,,,0.00,WUHU21623XXSP,2013-10-09 12:18:00,
2013-10-09 08:23:00,40.8,37.5,30.38,NNE,22,0.0,0.0,88,0.00,,,0.00,WUHU21623XXSP,2013-10-09 12:23:00,
2013-10-09 08:28:00,42.6,39.0,30.39,NNE,22,0.0,0.0,87,0.00,,,0.00,WUHU21623XXSP,2013-10-09 12:28:00,
2013-10-09 08:33:00,43.3,39.7,30.39,NNE,22,0.0,0.0,87,0.00,,,0.00,WUHU21623XXSP,2013-10-09 12:33:00,
2013-10-09 08:38:00,44.2,40.6,30.39,NNE,22,0.0,0.0,87,0.00,,,0.00,WUHU21623XXSP,2013-10-09 12:38:00,
2013-10-09 08:43:00,44.8,41.2,30.39,NNE,22,0.0,0.0,87,0.00,,,0.00,WUHU21623XXSP,2013-10-09 12:43:00,
2013-10-09 08:48:00,45.5,41.9,30.40,NNE,22,0.0,0.0,87,0.00,,,0.00,WUHU21623XXSP,2013-10-09 12:48:00,
2013-10-09 08:53:00,46.6,42.9,30.39,NNE,22,0.0,0.0,87,0.00,,,0.00,WUHU21623XXSP,2013-10-09 12:53:00,
2013-10-09 08:58:00,48.0,43.7,30.39,NNE,22,0.0,0.0,85,0.00,,,0.00,WUHU21623XXSP,2013-10-09 12:58:00,
2013-10-09 09:03:00,48.6,43.9,30.40,NNE,22,0.0,0.0,84,0.00,,,0.00,WUHU21623XXSP,2013-10-09 13:03:00,
2013-10-09 09:08:00,48.7,43.4,30.40,NNE,22,0.0,0.0,82,0.00,,,0.00,WUHU21623XXSP,2013-10-09 13:08:00,
2013-10-09 09:13:00,49.3,43.6,30.41,NNE,22,0.0,0.0,81,0.00,,,0.00,WUHU21623XXSP,2013-10-09 13:13:00,
2013-10-09 09:18:00,50.5,45.5,30.41,NNE,22,0.0,0.0,83,0.00,,,0.00,WUHU21623XXSP,2013-10-09 13:18:00,
2013-10-09 09:23:00,50.7,44.4,30.40,NNE,22,0.0,0.0,79,0.00,,,0.00,WUHU21623XXSP,2013-10-09 13:23:00,
2013-10-09 09:28:00,51.6,45.0,30.40,NNE,22,0.0,0.0,78,0.00,,,0.00,WUHU21623XXSP,2013-10-09 13:28:00,
2013-10-09 09:33:00,52.3,44.7,30.41,NNE,22,1.3,1.3,75,0.00,,,0.00,WUHU21623XXSP,2013-10-09 13:33:00,
2013-10-09 09:38:00,52.2,44.5,30.40,NNE,22,0.0,1.3,75,0.00,,,0.00,WUHU21623XXSP,2013-10-09 13:38:00,
2013-10-09 09:43:00,52.5,43.8,30.40,NNE,22,0.0,0.0,72,0.00,,,0.00,WUHU21623XXSP,2013-10-09 13:43:00,
2013-10-09 09:48:00,53.4,45.0,30.40,NNE,22,0.0,0.0,73,0.00,,,0.00,WUHU21623XXSP,2013-10-09 13:48:00,
2013-10-09 09:53:00,54.3,45.5,30.40,NNE,22,0.0,0.0,72,0.00,,,0.00,WUHU21623XXSP,2013-10-09 13:53:00,
2013-10-09 09:58:00,55.8,46.2,30.40,NNE,22,0.0,0.0,70,0.00,,,0.00,WUHU21623XXSP,2013-10-09 13:58:00,
2013-10-09 10:03:00,55.4,45.0,30.40,NNE,22,0.0,0.0,68,0.00,,,0.00,WUHU21623XXSP,2013-10-09 14:03:00,
2013-10-09 10:08:00,55.9,46.3,30.41,NNE,22,0.0,0.0,70,0.00,,,0.00,WUHU21623XXSP,2013-10-09 14:08:00,
2013-10-09 10:13:00,56.7,45.8,30.41,NNE,22,0.0,0.0,67,0.00,,,0.00,WUHU21623XXSP,2013-10-09 14:13:00,
2013-10-09 10:18:00,56.5,44.8,30.41,NNE,22,0.0,0.0,65,0.00,,,0.00,WUHU21623XXSP,2013-10-09 14:18:00,
2013-10-09 10:23:00,56.5,45.2,30.41,NNE,22,0.0,0.0,66,0.00,,,0.00,WUHU21623XXSP,2013-10-09 14:23:00,
2013-10-09 10:28:00,56.5,45.6,30.41,NNE,22,0.0,0.0,67,0.00,,,0.00,WUHU21623XXSP,2013-10-09 14:28:00,
2013-10-09 10:33:00,55.6,44.4,30.41,NNE,22,0.0,0.0,66,0.00,,,0.00,WUHU21623XXSP,2013-10-09 14:33:00,
2013-10-09 10:38:00,55.4,44.2,30.41,NNE,22,0.0,1.6,66,0.00,,,0.00,WUHU21623XXSP,2013-10-09 14:38:00,
2013-10-09 10:43:00,55.6,44.4,30.41,NNE,22,0.0,1.6,66,0.00,,,0.00,WUHU21623XXSP,2013-10-09 14:43:00,
2013-10-09 10:48:00,56.3,44.2,30.41,NNE,22,0.0,0.0,64,0.00,,,0.00,WUHU21623XXSP,2013-10-09 14:48:00,
2013-10-09 10:53:00,56.3,43.4,30.41,NNE,22,0.0,4.5,62,0.00,,,0.00,WUHU21623XXSP,2013-10-09 14:53:00,
2013-10-09 10:58:00,57.0,44.5,30.41,NNE,22,0.0,4.5,63,0.00,,,0.00,WUHU21623XXSP,2013-10-09 14:58:00,
2013-10-09 11:03:00,56.1,42.4,30.41,NNE,22,0.0,2.7,60,0.00,,,0.00,WUHU21623XXSP,2013-10-09 15:03:00,
2013-10-09 11:08:00,57.0,44.9,30.40,NNE,22,0.0,2.7,64,0.00,,,0.00,WUHU21623XXSP,2013-10-09 15:08:00,
2013-10-09 11:13:00,57.7,43.5,30.40,NNE,22,0.0,0.0,59,0.00,,,0.00,WUHU21623XXSP,2013-10-09 15:13:00,
2013-10-09 11:18:00,58.1,44.7,30.40,NNE,22,0.0,0.0,61,0.00,,,0.00,WUHU21623XXSP,2013-10-09 15:18:00,
2013-10-09 11:23:00,59.4,45.0,30.40,NNE,22,0.0,0.0,59,0.00,,,0.00,WUHU21623XXSP,2013-10-09 15:23:00,
2013-10-09 11:28:00,59.5,44.3,30.40,NNE,22,7.4,7.4,57,0.00,,,0.00,WUHU21623XXSP,2013-10-09 15:28:00,
2013-10-09 11:33:00,59.7,44.9,30.40,NNE,22,0.0,7.4,58,0.00,,,0.00,WUHU21623XXSP,2013-10-09 15:33:00,
2013-10-09 11:38:00,60.6,44.3,30.39,NNE,22,0.0,0.0,55,0.00,,,0.00,WUHU21623XXSP,2013-10-09 15:38:00,
2013-10-09 11:43:00,60.4,44.6,30.39,NNE,22,0.0,6.0,56,0.00,,,0.00,WUHU21623XXSP,2013-10-09 15:43:00,
2013-10-09 11:48:00,60.6,43.4,30.39,NNE,22,0.0,6.0,53,0.00,,,0.00,WUHU21623XXSP,2013-10-09 15:48:00,
2013-10-09 11:53:00,60.1,42.9,30.39,NNE,22,0.0,2.9,53,0.00,,,0.00,WUHU21623XXSP,2013-10-09 15:53:00,
2013-10-09 11:58:00,60.8,43.5,30.39,NNE,22,0.0,0.0,53,0.00,,,0.00,WUHU21623XXSP,2013-10-09 15:58:00,
2013-10-09 12:03:00,61.3,43.5,30.38,NNE,22,2.0,2.0,52,0.00,,,0.00,WUHU21623XXSP,2013-10-09 16:03:00,
2013-10-09 12:08:00,61.7,42.9,30.38,NNE,22,0.0,2.0,50,0.00,,,0.00,WUHU21623XXSP,2013-10-09 16:08:00,
2013-10-09 12:13:00,61.9,40.7,30.38,NNE,22,0.0,0.0,46,0.00,,,0.00,WUHU21623XXSP,2013-10-09 16:13:00,
2013-10-09 12:18:00,61.9,41.3,30.38,NNE,22,0.0,0.0,47,0.00,,,0.00,WUHU21623XXSP,2013-10-09 16:18:00,
2013-10-09 12:23:00,62.4,41.8,30.38,NNE,22,5.1,5.1,47,0.00,,,0.00,WUHU21623XXSP,2013-10-09 16:23:00,
2013-10-09 12:28:00,61.9,40.7,30.38,NNE,22,0.0,5.1,46,0.00,,,0.00,WUHU21623XXSP,2013-10-09 16:28:00,
2013-10-09 12:33:00,61.5,41.0,30.38,NNE,22,0.0,2.2,47,0.00,,,0.00,WUHU21623XXSP,2013-10-09 16:33:00,
2013-10-09 12:38:00,61.5,42.2,30.38,NNE,22,0.0,4.7,49,0.00,,,0.00,WUHU21623XXSP,2013-10-09 16:38:00,
2013-10-09 12:43:00,62.1,41.5,30.38,NNE,22,0.0,4.7,47,0.00,,,0.00,WUHU21623XXSP,2013-10-09 16:43:00,
2013-10-09 12:48:00,61.9,41.3,30.38,NNE,22,0.0,0.0,47,0.00,,,0.00,WUHU21623XXSP,2013-10-09 16:48:00,
2013-10-09 12:53:00,63.1,43.6,30.37,NNE,22,2.5,2.5,49,0.00,,,0.00,WUHU21623XXSP,2013-10-09 16:53:00,
2013-10-09 12:58:00,63.1,43.6,30.37,NNE,22,0.0,2.7,49,0.00,,,0.00,WUHU21623XXSP,2013-10-09 16:58:00,
2013-10-09 13:03:00,63.7,42.9,30.37,NNE,22,0.0,2.7,47,0.00,,,0.00,WUHU21623XXSP,2013-10-09 17:03:00,
2013-10-09 13:08:00,63.5,42.8,30.37,North,0,0.0,5.8,47,0.00,,,0.00,WUHU21623XXSP,2013-10-09 17:08:00,
2013-10-09 13:13:00,63.3,40.9,30.36,NNE,22,0.0,5.8,44,0.00,,,0.00,WUHU21623XXSP,2013-10-09 17:13:00,
2013-10-09 13:18:00,63.1,41.3,30.36,NNE,22,0.0,0.0,45,0.00,,,0.00,WUHU21623XXSP,2013-10-09 17:18:00,
2013-10-09 13:23:00,64.0,42.7,30.35,NNE,22,0.0,0.0,46,0.00,,,0.00,WUHU21623XXSP,2013-10-09 17:23:00,
2013-10-09 13:28:00,64.0,42.1,30.35,NNE,22,0.0,0.0,45,0.00,,,0.00,WUHU21623XXSP,2013-10-09 17:28:00,
2013-10-09 13:33:00,63.3,39.2,30.35,East,90,0.0,3.4,41,0.00,,,0.00,WUHU21623XXSP,2013-10-09 17:33:00,
2013-10-09 13:38:00,63.3,40.3,30.35,NNE,22,2.2,3.4,43,0.00,,,0.00,WUHU21623XXSP,2013-10-09 17:38:00,
2013-10-09 13:43:00,63.1,40.7,30.35,East,90,0.0,2.2,44,0.00,,,0.00,WUHU21623XXSP,2013-10-09 17:43:00,
2013-10-09 13:48:00,63.5,40.5,30.35,NNE,22,0.0,0.0,43,0.00,,,0.00,WUHU21623XXSP,2013-10-09 17:48:00,
2013-10-09 13:53:00,63.5,39.9,30.35,NNE,22,0.4,4.9,42,0.00,,,0.00,WUHU21623XXSP,2013-10-09 17:53:00,
2013-10-09 13:58:00,63.7,41.8,30.34,NNE,22,0.0,4.9,45,0.00,,,0.00,WUHU21623XXSP,2013-10-09 17:58:00,
2013-10-09 14:03:00,63.5,40.5,30.35,NNE,22,3.6,3.6,43,0.00,,,0.00,WUHU21623XXSP,2013-10-09 18:03:00,
2013-10-09 14:08:00,63.7,40.6,30.34,North,0,0.0,3.6,43,0.00,,,0.00,WUHU21623XXSP,2013-10-09 18:08:00,
2013-10-09 14:13:00,63.3,39.2,30.34,WNW,292,1.6,3.1,41,0.00,,,0.00,WUHU21623XXSP,2013-10-09 18:13:00,
2013-10-09 14:18:00,63.3,39.7,30.34,West,270,0.0,3.1,42,0.00,,,0.00,WUHU21623XXSP,2013-10-09 18:18:00,
2013-10-09 14:23:00,64.2,42.9,30.34,South,180,0.0,2.7,46,0.00,,,0.00,WUHU21623XXSP,2013-10-09 18:23:00,
2013-10-09 14:28:00,64.2,41.1,30.34,South,180,0.0,0.0,43,0.00,,,0.00,WUHU21623XXSP,2013-10-09 18:28:00,
2013-10-09 14:33:00,64.8,42.2,30.34,WSW,247,0.0,2.2,44,0.00,,,0.00,WUHU21623XXSP,2013-10-09 18:33:00,
2013-10-09 14:38:00,64.0,42.1,30.34,WSW,247,2.2,4.5,45,0.00,,,0.00,WUHU21623XXSP,2013-10-09 18:38:00,
2013-10-09 14:43:00,64.2,41.1,30.33,WSW,247,2.5,4.5,43,0.00,,,0.00,WUHU21623XXSP,2013-10-09 18:43:00,
2013-10-09 14:48:00,64.2,42.9,30.33,WSW,247,4.7,4.7,46,0.00,,,0.00,WUHU21623XXSP,2013-10-09 18:48:00,
2013-10-09 14:53:00,64.2,42.3,30.34,WSW,247,0.0,4.7,45,0.00,,,0.00,WUHU21623XXSP,2013-10-09 18:53:00,
2013-10-09 14:58:00,64.0,41.0,30.33,WSW,247,1.3,1.3,43,0.00,,,0.00,WUHU21623XXSP,2013-10-09 18:58:00,
2013-10-09 15:03:00,64.0,42.7,30.33,WSW,247,0.0,1.3,46,0.00,,,0.00,WUHU21623XXSP,2013-10-09 19:03:00,
2013-10-09 15:08:00,64.0,42.1,30.32,WSW,247,0.0,2.9,45,0.00,,,0.00,WUHU21623XXSP,2013-10-09 19:08:00,
2013-10-09 15:13:00,64.0,41.0,30.32,WSW,247,2.2,2.9,43,0.00,,,0.00,WUHU21623XXSP,2013-10-09 19:13:00,
2013-10-09 15:18:00,64.6,42.6,30.32,WSW,247,0.0,2.5,45,0.00,,,0.00,WUHU21623XXSP,2013-10-09 19:18:00,
2013-10-09 15:23:00,65.1,41.4,30.31,WSW,247,0.0,2.2,42,0.00,,,0.00,WUHU21623XXSP,2013-10-09 19:23:00,
2013-10-09 15:28:00,64.8,41.0,30.31,WSW,247,0.0,2.2,42,0.00,,,0.00,WUHU21623XXSP,2013-10-09 19:28:00,
2013-10-09 15:33:00,64.2,40.5,30.31,NNE,22,0.0,3.1,42,0.00,,,0.00,WUHU21623XXSP,2013-10-09 19:33:00,
2013-10-09 15:38:00,64.6,40.9,30.31,WSW,247,0.0,3.1,42,0.00,,,0.00,WUHU21623XXSP,2013-10-09 19:38:00,
2013-10-09 15:43:00,64.2,40.0,30.31,WSW,247,0.0,0.0,41,0.00,,,0.00,WUHU21623XXSP,2013-10-09 19:43:00,
2013-10-09 15:48:00,64.2,38.7,30.31,WSW,247,0.0,0.0,39,0.00,,,0.00,WUHU21623XXSP,2013-10-09 19:48:00,
2013-10-09 15:53:00,64.4,40.1,30.31,WSW,247,0.0,4.0,41,0.00,,,0.00,WUHU21623XXSP,2013-10-09 19:53:00,
2013-10-09 15:58:00,64.4,40.1,30.31,WSW,247,0.0,4.0,41,0.00,,,0.00,WUHU21623XXSP,2013-10-09 19:58:00,
2013-10-09 16:03:00,64.2,39.4,30.31,WSW,247,0.0,0.0,40,0.00,,,0.00,WUHU21623XXSP,2013-10-09 20:03:00,
2013-10-09 16:08:00,64.2,38.7,30.30,WSW,247,0.0,0.0,39,0.00,,,0.00,WUHU21623XXSP,2013-10-09 20:08:00,
2013-10-09 16:13:00,64.2,39.4,30.30,WSW,247,0.0,0.0,40,0.00,,,0.00,WUHU21623XXSP,2013-10-09 20:13:00,
2013-10-09 16:18:00,64.0,39.2,30.30,WNW,292,0.0,0.0,40,0.00,,,0.00,WUHU21623XXSP,2013-10-09 20:18:00,
2013-10-09 16:23:00,64.2,38.0,30.30,WSW,247,0.0,0.0,38,0.00,,,0.00,WUHU21623XXSP,2013-10-09 20:23:00,
2013-10-09 16:28:00,64.0,38.5,30.29,WSW,247,0.0,0.0,39,0.00,,,0.00,WUHU21623XXSP,2013-10-09 20:28:00,
2013-10-09 16:33:00,63.7,38.2,30.30,SW,225,0.0,0.0,39,0.00,,,0.00,WUHU21623XXSP,2013-10-09 20:33:00,
2013-10-09 16:38:00,63.1,39.0,30.30,WSW,247,0.0,2.2,41,0.00,,,0.00,WUHU21623XXSP,2013-10-09 20:38:00,
2013-10-09 16:43:00,63.1,39.0,30.30,WSW,247,0.0,2.2,41,0.00,,,0.00,WUHU21623XXSP,2013-10-09 20:43:00,
2013-10-09 16:48:00,63.1,39.6,30.30,WSW,247,1.1,1.1,42,0.00,,,0.00,WUHU21623XXSP,2013-10-09 20:48:00,
2013-10-09 16:53:00,63.0,39.4,30.30,WSW,247,0.0,1.1,42,0.00,,,0.00,WUHU21623XXSP,2013-10-09 20:53:00,
2013-10-09 16:58:00,62.8,39.3,30.30,SSE,157,0.0,0.0,42,0.00,,,0.00,WUHU21623XXSP,2013-10-09 20:58:00,
2013-10-09 17:03:00,62.4,39.5,30.30,SSE,157,0.0,0.0,43,0.00,,,0.00,WUHU21623XXSP,2013-10-09 21:03:00,
2013-10-09 17:08:00,62.4,40.1,30.30,NNE,22,0.0,0.0,44,0.00,,,0.00,WUHU21623XXSP,2013-10-09 21:08:00,
2013-10-09 17:13:00,62.2,40.5,30.30,NNE,22,0.0,0.0,45,0.00,,,0.00,WUHU21623XXSP,2013-10-09 21:13:00,
2013-10-09 17:18:00,61.5,39.3,30.30,NNE,22,0.0,0.0,44,0.00,,,0.00,WUHU21623XXSP,2013-10-09 21:18:00,
2013-10-09 17:23:00,61.0,39.4,30.30,NNE,22,0.0,0.0,45,0.00,,,0.00,WUHU21623XXSP,2013-10-09 21:23:00,
2013-10-09 17:28:00,60.4,39.5,30.29,NNE,22,0.0,0.0,46,0.00,,,0.00,WUHU21623XXSP,2013-10-09 21:28:00,
2013-10-09 17:33:00,60.1,39.7,30.29,NNE,22,0.0,0.0,47,0.00,,,0.00,WUHU21623XXSP,2013-10-09 21:33:00,
2013-10-09 17:38:00,59.5,39.8,30.29,NNE,22,0.0,0.0,48,0.00,,,0.00,WUHU21623XXSP,2013-10-09 21:38:00,
2013-10-09 17:43:00,58.8,39.7,30.29,NNE,22,0.0,0.0,49,0.00,,,0.00,WUHU21623XXSP,2013-10-09 21:43:00,
2013-10-09 17:48:00,58.5,40.0,30.29,NNE,22,0.0,0.0,50,0.00,,,0.00,WUHU21623XXSP,2013-10-09 21:48:00,
2013-10-09 17:53:00,57.2,39.3,30.29,NNE,22,0.0,0.0,51,0.00,,,0.00,WUHU21623XXSP,2013-10-09 21:53:00,
2013-10-09 17:58:00,56.5,39.5,30.29,NNE,22,0.0,0.0,53,0.00,,,0.00,WUHU21623XXSP,2013-10-09 21:58:00,
2013-10-09 18:03:00,55.8,38.3,30.29,NNE,22,0.0,0.0,52,0.00,,,0.00,WUHU21623XXSP,2013-10-09 22:03:00,
2013-10-09 18:08:00,55.0,38.6,30.29,NNE,22,0.0,0.0,54,0.00,,,0.00,WUHU21623XXSP,2013-10-09 22:08:00,
2013-10-09 18:13:00,54.1,38.2,30.29,NNE,22,0.0,0.0,55,0.00,,,0.00,WUHU21623XXSP,2013-10-09 22:13:00,
2013-10-09 18:18:00,53.2,38.8,30.29,NNE,22,0.0,0.0,58,0.00,,,0.00,WUHU21623XXSP,2013-10-09 22:18:00,
2013-10-09 18:23:00,51.6,37.7,30.29,NNE,22,0.0,0.0,59,0.00,,,0.00,WUHU21623XXSP,2013-10-09 22:23:00,
2013-10-09 18:28:00,51.1,37.7,30.29,NNE,22,0.0,0.0,60,0.00,,,0.00,WUHU21623XXSP,2013-10-09 22:28:00,
2013-10-09 18:33:00,50.7,37.3,30.29,NNE,22,0.0,0.0,60,0.00,,,0.00,WUHU21623XXSP,2013-10-09 22:33:00,
2013-10-09 18:38:00,50.4,37.4,30.29,NNE,22,0.0,0.0,61,0.00,,,0.00,WUHU21623XXSP,2013-10-09 22:38:00,
2013-10-09 18:43:00,50.4,37.4,30.29,NNE,22,0.0,0.0,61,0.00,,,0.00,WUHU21623XXSP,2013-10-09 22:43:00,
2013-10-09 18:48:00,50.2,37.2,30.29,NNE,22,0.0,0.0,61,0.00,,,0.00,WUHU21623XXSP,2013-10-09 22:48:00,
2013-10-09 18:53:00,49.8,37.3,30.29,NNE,22,0.0,0.0,62,0.00,,,0.00,WUHU21623XXSP,2013-10-09 22:53:00,
2013-10-09 18:58:00,49.3,37.2,30.29,NNE,22,0.0,0.0,63,0.00,,,0.00,WUHU21623XXSP,2013-10-09 22:58:00,
2013-10-09 19:03:00,48.7,37.1,30.29,NNE,22,0.0,0.0,64,0.00,,,0.00,WUHU21623XXSP,2013-10-09 23:03:00,
2013-10-09 19:08:00,48.7,37.1,30.29,NNE,22,0.0,0.0,64,0.00,,,0.00,WUHU21623XXSP,2013-10-09 23:08:00,
2013-10-09 19:13:00,49.1,37.4,30.29,NNE,22,0.0,0.0,64,0.00,,,0.00,WUHU21623XXSP,2013-10-09 23:13:00,
2013-10-09 19:18:00,49.6,37.9,30.29,NNE,22,0.0,0.0,64,0.00,,,0.00,WUHU21623XXSP,2013-10-09 23:18:00,
2013-10-09 19:23:00,50.7,38.1,30.29,NNE,22,0.0,0.0,62,0.00,,,0.00,WUHU21623XXSP,2013-10-09 23:23:00,
2013-10-09 19:28:00,51.3,38.6,30.29,NNE,22,0.0,0.0,62,0.00,,,0.00,WUHU21623XXSP,2013-10-09 23:28:00,
2013-10-09 19:33:00,51.4,38.8,30.29,NNE,22,0.0,0.0,62,0.00,,,0.00,WUHU21623XXSP,2013-10-09 23:33:00,
2013-10-09 19:38:00,52.0,38.5,30.29,NNE,22,0.0,0.0,60,0.00,,,0.00,WUHU21623XXSP,2013-10-09 23:38:00,
2013-10-09 19:43:00,52.3,38.4,30.29,NNE,22,0.0,0.0,59,0.00,,,0.00,WUHU21623XXSP,2013-10-09 23:43:00,
2013-10-09 19:48:00,52.2,38.7,30.29,NNE,22,0.0,0.0,60,0.00,,,0.00,WUHU21623XXSP,2013-10-09 23:48:00,
2013-10-09 19:53:00,51.6,37.7,30.28,NNE,22,0.0,0.0,59,0.00,,,0.00,WUHU21623XXSP,2013-10-09 23:53:00,
2013-10-09 19:58:00,52.3,38.4,30.28,NNE,22,0.0,0.0,59,0.00,,,0.00,WUHU21623XXSP,2013-10-09 23:58:00,
2013-10-09 20:03:00,52.2,38.2,30.28,NNE,22,0.0,0.0,59,0.00,,,0.00,WUHU21623XXSP,2013-10-10 00:03:00,
2013-10-09 20:08:00,52.2,38.2,30.28,NNE,22,0.0,0.0,59,0.00,,,0.00,WUHU21623XXSP,2013-10-10 00:08:00,
2013-10-09 20:13:00,52.3,38.4,30.29,NNE,22,0.0,0.0,59,0.00,,,0.00,WUHU21623XXSP,2013-10-10 00:13:00,
2013-10-09 20:18:00,52.3,37.9,30.28,NNE,22,0.0,0.0,58,0.00,,,0.00,WUHU21623XXSP,2013-10-10 00:18:00,
2013-10-09 20:23:00,52.3,37.9,30.29,NNE,22,0.0,1.8,58,0.00,,,0.00,WUHU21623XXSP,2013-10-10 00:23:00,
2013-10-09 20:28:00,52.2,37.7,30.28,NNE,22,0.0,1.8,58,0.00,,,0.00,WUHU21623XXSP,2013-10-10 00:28:00,
2013-10-09 20:33:00,51.6,37.7,30.29,NNE,22,0.0,0.0,59,0.00,,,0.00,WUHU21623XXSP,2013-10-10 00:33:00,
2013-10-09 20:38:00,49.3,37.2,30.29,NNE,22,0.0,0.0,63,0.00,,,0.00,WUHU21623XXSP,2013-10-10 00:38:00,
2013-10-09 20:43:00,47.5,35.9,30.29,NNE,22,0.0,0.0,64,0.00,,,0.00,WUHU21623XXSP,2013-10-10 00:43:00,
2013-10-09 20:48:00,46.2,35.5,30.28,NNE,22,0.0,0.0,66,0.00,,,0.00,WUHU21623XXSP,2013-10-10 00:48:00,
2013-10-09 20:53:00,45.1,35.2,30.29,NNE,22,0.0,0.0,68,0.00,,,0.00,WUHU21623XXSP,2013-10-10 00:53:00,
2013-10-09 20:58:00,44.2,34.7,30.29,NNE,22,0.0,0.0,69,0.00,,,0.00,WUHU21623XXSP,2013-10-10 00:58:00,
2013-10-09 21:03:00,43.3,34.3,30.29,NNE,22,0.0,0.0,70,0.00,,,0.00,WUHU21623XXSP,2013-10-10 01:03:00,
2013-10-09 21:08:00,42.4,34.1,30.29,NNE,22,0.0,0.0,72,0.00,,,0.00,WUHU21623XXSP,2013-10-10 01:08:00,
2013-10-09 21:13:00,42.1,33.7,30.29,NNE,22,0.0,0.0,72,0.00,,,0.00,WUHU21623XXSP,2013-10-10 01:13:00,
2013-10-09 21:18:00,41.9,33.9,30.29,NNE,22,0.0,0.0,73,0.00,,,0.00,WUHU21623XXSP,2013-10-10 01:18:00,
2013-10-09 21:23:00,41.4,33.3,30.29,NNE,22,0.0,0.0,73,0.00,,,0.00,WUHU21623XXSP,2013-10-10 01:23:00,
2013-10-09 21:28:00,40.8,33.1,30.30,NNE,22,0.0,0.0,74,0.00,,,0.00,WUHU21623XXSP,2013-10-10 01:28:00,
2013-10-09 21:33:00,40.5,33.1,30.29,NNE,22,0.0,0.0,75,0.00,,,0.00,WUHU21623XXSP,2013-10-10 01:33:00,
2013-10-09 21:38:00,40.1,33.1,30.29,NNE,22,0.0,0.0,76,0.00,,,0.00,WUHU21623XXSP,2013-10-10 01:38:00,
2013-10-09 21:43:00,39.7,32.8,30.29,NNE,22,0.0,0.0,76,0.00,,,0.00,WUHU21623XXSP,2013-10-10 01:43:00,
2013-10-09 21:48:00,39.7,33.1,30.30,NNE,22,0.0,0.0,77,0.00,,,0.00,WUHU21623XXSP,2013-10-10 01:48:00,
2013-10-09 21:53:00,39.9,33.6,30.30,NNE,22,0.0,0.0,78,0.00,,,0.00,WUHU21623XXSP,2013-10-10 01:53:00,
2013-10-09 21:58:00,39.9,33.6,30.30,NNE,22,0.0,0.0,78,0.00,,,0.00,WUHU21623XXSP,2013-10-10 01:58:00,
2013-10-09 22:03:00,39.9,33.9,30.30,NNE,22,0.0,0.0,79,0.00,,,0.00,WUHU21623XXSP,2013-10-10 02:03:00,
2013-10-09 22:08:00,39.9,33.9,30.30,NNE,22,0.0,0.0,79,0.00,,,0.00,WUHU21623XXSP,2013-10-10 02:08:00,
2013-10-09 22:13:00,39.7,33.8,30.30,NNE,22,0.0,0.0,79,0.00,,,0.00,WUHU21623XXSP,2013-10-10 02:13:00,
2013-10-09 22:18:00,39.0,33.1,30.30,NNE,22,0.0,0.0,79,0.00,,,0.00,WUHU21623XXSP,2013-10-10 02:18:00,
2013-10-09 22:23:00,39.0,33.1,30.30,NNE,22,0.0,0.0,79,0.00,,,0.00,WUHU21623XXSP,2013-10-10 02:23:00,
2013-10-09 22:28:00,39.0,33.4,30.30,NNE,22,0.0,0.0,80,0.00,,,0.00,WUHU21623XXSP,2013-10-10 02:28:00,
2013-10-09 22:33:00,39.0,33.4,30.30,NNE,22,0.0,0.0,80,0.00,,,0.00,WUHU21623XXSP,2013-10-10 02:33:00,
2013-10-09 22:38:00,39.0,33.7,30.30,NNE,22,0.0,0.0,81,0.00,,,0.00,WUHU21623XXSP,2013-10-10 02:38:00,
2013-10-09 22:43:00,39.2,33.9,30.30,NNE,22,0.0,0.0,81,0.00,,,0.00,WUHU21623XXSP,2013-10-10 02:43:00,
2013-10-09 22:48:00,39.0,33.7,30.30,NNE,22,0.0,0.0,81,0.00,,,0.00,WUHU21623XXSP,2013-10-10 02:48:00,
2013-10-09 22:53:00,38.8,33.5,30.29,NNE,22,0.0,0.0,81,0.00,,,0.00,WUHU21623XXSP,2013-10-10 02:53:00,
2013-10-09 22:58:00,39.0,34.0,30.29,NNE,22,0.0,0.0,82,0.00,,,0.00,WUHU21623XXSP,2013-10-10 02:58:00,
2013-10-09 23:03:00,39.7,34.7,30.29,NNE,22,0.0,0.0,82,0.00,,,0.00,WUHU21623XXSP,2013-10-10 03:03:00,
2013-10-09 23:08:00,39.9,34.8,30.29,NNE,22,0.0,0.0,82,0.00,,,0.00,WUHU21623XXSP,2013-10-10 03:08:00,
2013-10-09 23:13:00,40.3,35.2,30.29,NNE,22,0.0,0.0,82,0.00,,,0.00,WUHU21623XXSP,2013-10-10 03:13:00,
2013-10-09 23:18:00,41.7,36.6,30.29,NNE,22,0.0,0.0,82,0.00,,,0.00,WUHU21623XXSP,2013-10-10 03:18:00,
2013-10-09 23:23:00,43.2,37.7,30.29,NNE,22,0.0,0.0,81,0.00,,,0.00,WUHU21623XXSP,2013-10-10 03:23:00,
2013-10-09 23:28:00,44.1,38.3,30.29,NNE,22,0.0,0.0,80,0.00,,,0.00,WUHU21623XXSP,2013-10-10 03:28:00,
2013-10-09 23:33:00,43.7,37.6,30.29,NNE,22,0.0,0.0,79,0.00,,,0.00,WUHU21623XXSP,2013-10-10 03:33:00,
2013-10-09 23:38:00,43.0,36.9,30.29,NNE,22,0.0,0.0,79,0.00,,,0.00,WUHU21623XXSP,2013-10-10 03:38:00,
2013-10-09 23:43:00,42.1,36.0,30.29,NNE,22,0.0,0.0,79,0.00,,,0.00,WUHU21623XXSP,2013-10-10 03:43:00,
2013-10-09 23:48:00,41.7,36.0,30.29,NNE,22,0.0,0.0,80,0.00,,,0.00,WUHU21623XXSP,2013-10-10 03:48:00,
2013-10-09 23:53:00,41.7,36.3,30.28,NNE,22,0.0,0.0,81,0.00,,,0.00,WUHU21623XXSP,2013-10-10 03:53:00,
2013-10-09 23:58:00,42.4,37.0,30.28,NNE,22,0.0,0.0,81,0.00,,,0.00,WUHU21623XXSP,2013-10-10 03:58:00,